sensor_id;sensor_type;location;lat;lon;timestamp;temperature;humidity
12815;DHT22;6472;52.328;13.070;2022-09-23T00:02:02;3.10;99.90
12815;DHT22;6472;52.328;13.070;2022-09-23T00:04:34;3.30;99.90
12815;DHT22;6472;52.328;13.070;2022-09-23T00:07:02;3.20;99.90
12815;DHT22;6472;52.328;13.070;2022-09-23T00:09:30;3.10;99.90
12815;DHT22;6472;52.328;13.070;2022-09-23T00:11:58;3.20;99.90
12815;DHT22;6472;52.328;13.070;2022-09-23T00:14:31;3.10;99.90
12815;DHT22;6472;52.328;13.070;2022-09-23T00:16:59;3.10;99.90
12815;DHT22;6472;52.328;13.070;2022-09-23T00:19:27;2.90;99.90
12815;DHT22;6472;52.328;13.070;2022-09-23T00:21:56;3.00;99.90
12815;DHT22;6472;52.328;13.070;2022-09-23T00:24:24;3.00;99.90
12815;DHT22;6472;52.328;13.070;2022-09-23T00:26:53;3.00;99.90
12815;DHT22;6472;52.328;13.070;2022-09-23T00:29:21;3.00;99.90
12815;DHT22;6472;52.328;13.070;2022-09-23T00:31:49;2.90;99.90
12815;DHT22;6472;52.328;13.070;2022-09-23T00:34:17;3.00;99.90
12815;DHT22;6472;52.328;13.070;2022-09-23T00:36:45;3.00;99.90
12815;DHT22;6472;52.328;13.070;2022-09-23T00:39:14;2.90;99.90
12815;DHT22;6472;52.328;13.070;2022-09-23T00:41:42;2.90;99.90
12815;DHT22;6472;52.328;13.070;2022-09-23T00:44:40;2.90;99.90
12815;DHT22;6472;52.328;13.070;2022-09-23T00:47:12;2.90;99.90
12815;DHT22;6472;52.328;13.070;2022-09-23T00:49:42;2.80;99.90
12815;DHT22;6472;52.328;13.070;2022-09-23T00:52:15;2.80;99.90
12815;DHT22;6472;52.328;13.070;2022-09-23T00:54:46;2.80;99.90
12815;DHT22;6472;52.328;13.070;2022-09-23T00:57:16;2.80;99.90
12815;DHT22;6472;52.328;13.070;2022-09-23T00:59:47;2.80;99.90
12815;DHT22;6472;52.328;13.070;2022-09-23T01:02:16;2.70;99.90
12815;DHT22;6472;52.328;13.070;2022-09-23T01:04:48;2.70;99.90
12815;DHT22;6472;52.328;13.070;2022-09-23T01:07:16;2.70;99.90
12815;DHT22;6472;52.328;13.070;2022-09-23T01:09:46;2.70;99.90
12815;DHT22;6472;52.328;13.070;2022-09-23T01:12:25;2.60;99.90
12815;DHT22;6472;52.328;13.070;2022-09-23T01:15:03;2.60;99.90
12815;DHT22;6472;52.328;13.070;2022-09-23T01:17:38;2.60;99.90
12815;DHT22;6472;52.328;13.070;2022-09-23T01:20:35;2.50;99.90
12815;DHT22;6472;52.328;13.070;2022-09-23T01:23:27;2.50;99.90
12815;DHT22;6472;52.328;13.070;2022-09-23T01:26:18;2.50;99.90
12815;DHT22;6472;52.328;13.070;2022-09-23T01:29:07;2.50;99.90
12815;DHT22;6472;52.328;13.070;2022-09-23T01:31:45;2.50;99.90
12815;DHT22;6472;52.328;13.070;2022-09-23T01:34:22;2.50;99.90
12815;DHT22;6472;52.328;13.070;2022-09-23T01:36:54;2.40;99.90
12815;DHT22;6472;52.328;13.070;2022-09-23T01:39:32;2.40;99.90
12815;DHT22;6472;52.328;13.070;2022-09-23T01:42:04;2.40;99.90
12815;DHT22;6472;52.328;13.070;2022-09-23T01:44:39;2.40;99.90
12815;DHT22;6472;52.328;13.070;2022-09-23T01:47:14;2.40;99.90
12815;DHT22;6472;52.328;13.070;2022-09-23T01:49:54;2.40;99.90
12815;DHT22;6472;52.328;13.070;2022-09-23T01:52:27;2.40;99.90
12815;DHT22;6472;52.328;13.070;2022-09-23T01:54:59;2.40;99.90
12815;DHT22;6472;52.328;13.070;2022-09-23T01:57:31;2.40;99.90
12815;DHT22;6472;52.328;13.070;2022-09-23T02:00:04;2.30;99.90
12815;DHT22;6472;52.328;13.070;2022-09-23T02:02:37;2.30;99.90
12815;DHT22;6472;52.328;13.070;2022-09-23T02:05:11;2.20;99.90
12815;DHT22;6472;52.328;13.070;2022-09-23T02:07:45;2.20;99.90
12815;DHT22;6472;52.328;13.070;2022-09-23T02:10:18;2.20;99.90
12815;DHT22;6472;52.328;13.070;2022-09-23T02:12:52;2.20;99.90
12815;DHT22;6472;52.328;13.070;2022-09-23T02:15:25;2.20;99.90
12815;DHT22;6472;52.328;13.070;2022-09-23T02:18:00;2.10;99.90
12815;DHT22;6472;52.328;13.070;2022-09-23T02:20:33;2.10;99.90
12815;DHT22;6472;52.328;13.070;2022-09-23T02:23:04;2.10;99.90
12815;DHT22;6472;52.328;13.070;2022-09-23T02:25:38;2.10;99.90
12815;DHT22;6472;52.328;13.070;2022-09-23T02:28:12;2.10;99.90
12815;DHT22;6472;52.328;13.070;2022-09-23T02:30:45;2.00;99.90
12815;DHT22;6472;52.328;13.070;2022-09-23T02:33:20;2.10;99.90
12815;DHT22;6472;52.328;13.070;2022-09-23T02:35:53;2.20;99.90
12815;DHT22;6472;52.328;13.070;2022-09-23T02:38:28;2.10;99.90
12815;DHT22;6472;52.328;13.070;2022-09-23T02:41:03;2.10;99.90
12815;DHT22;6472;52.328;13.070;2022-09-23T02:43:34;2.10;99.90
12815;DHT22;6472;52.328;13.070;2022-09-23T02:46:05;2.00;99.90
12815;DHT22;6472;52.328;13.070;2022-09-23T02:48:38;2.00;99.90
12815;DHT22;6472;52.328;13.070;2022-09-23T02:51:07;2.00;99.90
12815;DHT22;6472;52.328;13.070;2022-09-23T02:53:36;1.80;99.90
12815;DHT22;6472;52.328;13.070;2022-09-23T02:56:13;1.90;99.90
12815;DHT22;6472;52.328;13.070;2022-09-23T02:58:42;1.90;99.90
12815;DHT22;6472;52.328;13.070;2022-09-23T03:01:17;1.80;99.90
12815;DHT22;6472;52.328;13.070;2022-09-23T03:03:58;1.80;99.90
12815;DHT22;6472;52.328;13.070;2022-09-23T03:06:37;1.80;99.90
12815;DHT22;6472;52.328;13.070;2022-09-23T03:09:11;1.80;99.90
12815;DHT22;6472;52.328;13.070;2022-09-23T03:11:45;1.80;99.90
12815;DHT22;6472;52.328;13.070;2022-09-23T03:14:21;1.80;99.90
12815;DHT22;6472;52.328;13.070;2022-09-23T03:16:55;1.80;99.90
12815;DHT22;6472;52.328;13.070;2022-09-23T03:19:30;1.70;99.90
12815;DHT22;6472;52.328;13.070;2022-09-23T03:22:02;1.70;99.90
12815;DHT22;6472;52.328;13.070;2022-09-23T03:24:34;1.70;99.90
12815;DHT22;6472;52.328;13.070;2022-09-23T03:27:07;1.60;99.90
12815;DHT22;6472;52.328;13.070;2022-09-23T03:29:42;1.60;99.90
12815;DHT22;6472;52.328;13.070;2022-09-23T03:32:13;1.60;99.90
12815;DHT22;6472;52.328;13.070;2022-09-23T03:34:47;1.60;99.90
12815;DHT22;6472;52.328;13.070;2022-09-23T03:37:19;1.60;99.90
12815;DHT22;6472;52.328;13.070;2022-09-23T03:39:50;1.50;99.90
12815;DHT22;6472;52.328;13.070;2022-09-23T03:42:21;1.60;99.90
12815;DHT22;6472;52.328;13.070;2022-09-23T03:44:52;1.50;99.90
12815;DHT22;6472;52.328;13.070;2022-09-23T03:47:23;1.50;99.90
12815;DHT22;6472;52.328;13.070;2022-09-23T03:49:53;1.50;99.90
12815;DHT22;6472;52.328;13.070;2022-09-23T03:52:24;1.50;99.90
12815;DHT22;6472;52.328;13.070;2022-09-23T03:54:52;1.50;99.90
12815;DHT22;6472;52.328;13.070;2022-09-23T03:57:21;1.40;99.90
12815;DHT22;6472;52.328;13.070;2022-09-23T03:59:49;1.40;99.90
12815;DHT22;6472;52.328;13.070;2022-09-23T04:02:17;1.40;99.90
12815;DHT22;6472;52.328;13.070;2022-09-23T04:04:46;1.50;99.90
12815;DHT22;6472;52.328;13.070;2022-09-23T04:07:16;1.50;99.90
12815;DHT22;6472;52.328;13.070;2022-09-23T04:09:43;1.40;99.90
12815;DHT22;6472;52.328;13.070;2022-09-23T04:12:13;1.40;99.90
12815;DHT22;6472;52.328;13.070;2022-09-23T04:14:41;1.40;99.90
12815;DHT22;6472;52.328;13.070;2022-09-23T04:17:10;1.30;99.90
12815;DHT22;6472;52.328;13.070;2022-09-23T04:19:38;1.30;99.90
12815;DHT22;6472;52.328;13.070;2022-09-23T04:22:07;1.30;99.90
12815;DHT22;6472;52.328;13.070;2022-09-23T04:24:36;1.30;99.90
12815;DHT22;6472;52.328;13.070;2022-09-23T04:27:04;1.30;99.90
12815;DHT22;6472;52.328;13.070;2022-09-23T04:29:32;1.40;99.90
12815;DHT22;6472;52.328;13.070;2022-09-23T04:32:00;1.20;99.90
12815;DHT22;6472;52.328;13.070;2022-09-23T04:34:29;1.40;99.90
12815;DHT22;6472;52.328;13.070;2022-09-23T04:36:57;1.30;99.90
12815;DHT22;6472;52.328;13.070;2022-09-23T04:39:25;1.30;99.90
12815;DHT22;6472;52.328;13.070;2022-09-23T04:41:54;1.30;99.90
12815;DHT22;6472;52.328;13.070;2022-09-23T04:44:22;1.30;99.90
12815;DHT22;6472;52.328;13.070;2022-09-23T04:46:51;1.30;99.90
12815;DHT22;6472;52.328;13.070;2022-09-23T04:49:19;1.20;99.90
12815;DHT22;6472;52.328;13.070;2022-09-23T04:51:47;1.20;99.90
12815;DHT22;6472;52.328;13.070;2022-09-23T04:54:15;1.20;99.90
12815;DHT22;6472;52.328;13.070;2022-09-23T04:56:43;1.20;99.90
12815;DHT22;6472;52.328;13.070;2022-09-23T04:59:12;1.20;99.90
12815;DHT22;6472;52.328;13.070;2022-09-23T05:01:40;1.20;99.90
12815;DHT22;6472;52.328;13.070;2022-09-23T05:04:09;1.20;99.90
12815;DHT22;6472;52.328;13.070;2022-09-23T05:06:40;1.20;99.90
12815;DHT22;6472;52.328;13.070;2022-09-23T05:09:14;1.30;99.90
12815;DHT22;6472;52.328;13.070;2022-09-23T05:11:43;1.30;99.90
12815;DHT22;6472;52.328;13.070;2022-09-23T05:14:12;1.30;99.90
12815;DHT22;6472;52.328;13.070;2022-09-23T05:16:40;1.30;99.90
12815;DHT22;6472;52.328;13.070;2022-09-23T05:19:09;1.30;99.90
12815;DHT22;6472;52.328;13.070;2022-09-23T05:21:37;1.40;99.90
12815;DHT22;6472;52.328;13.070;2022-09-23T05:24:06;1.40;99.90
12815;DHT22;6472;52.328;13.070;2022-09-23T05:26:34;1.40;99.90
12815;DHT22;6472;52.328;13.070;2022-09-23T05:29:02;1.40;99.90
12815;DHT22;6472;52.328;13.070;2022-09-23T05:31:32;1.40;99.90
12815;DHT22;6472;52.328;13.070;2022-09-23T05:34:02;1.50;99.90
12815;DHT22;6472;52.328;13.070;2022-09-23T05:36:32;1.50;99.90
12815;DHT22;6472;52.328;13.070;2022-09-23T05:39:05;1.60;99.90
12815;DHT22;6472;52.328;13.070;2022-09-23T05:41:34;1.60;99.90
12815;DHT22;6472;52.328;13.070;2022-09-23T05:44:02;1.70;99.90
12815;DHT22;6472;52.328;13.070;2022-09-23T05:46:32;1.80;99.90
12815;DHT22;6472;52.328;13.070;2022-09-23T05:49:01;1.80;99.90
12815;DHT22;6472;52.328;13.070;2022-09-23T05:51:32;1.90;99.90
12815;DHT22;6472;52.328;13.070;2022-09-23T05:54:01;1.90;99.90
12815;DHT22;6472;52.328;13.070;2022-09-23T05:56:31;2.00;99.90
12815;DHT22;6472;52.328;13.070;2022-09-23T05:59:00;2.10;99.90
12815;DHT22;6472;52.328;13.070;2022-09-23T06:01:30;2.20;99.90
12815;DHT22;6472;52.328;13.070;2022-09-23T06:04:03;2.20;99.90
12815;DHT22;6472;52.328;13.070;2022-09-23T06:06:33;2.30;99.90
12815;DHT22;6472;52.328;13.070;2022-09-23T06:09:03;2.40;99.90
12815;DHT22;6472;52.328;13.070;2022-09-23T06:11:33;2.50;99.90
12815;DHT22;6472;52.328;13.070;2022-09-23T06:14:02;2.60;99.90
12815;DHT22;6472;52.328;13.070;2022-09-23T06:16:33;2.70;99.90
12815;DHT22;6472;52.328;13.070;2022-09-23T06:19:03;2.80;99.90
12815;DHT22;6472;52.328;13.070;2022-09-23T06:21:34;3.00;99.90
12815;DHT22;6472;52.328;13.070;2022-09-23T06:24:03;3.00;99.90
12815;DHT22;6472;52.328;13.070;2022-09-23T06:26:31;3.10;99.90
12815;DHT22;6472;52.328;13.070;2022-09-23T06:29:01;3.20;99.90
12815;DHT22;6472;52.328;13.070;2022-09-23T06:31:29;3.40;99.90
12815;DHT22;6472;52.328;13.070;2022-09-23T06:33:58;3.50;99.90
12815;DHT22;6472;52.328;13.070;2022-09-23T06:36:39;3.70;99.90
12815;DHT22;6472;52.328;13.070;2022-09-23T06:39:12;3.80;99.90
12815;DHT22;6472;52.328;13.070;2022-09-23T06:41:41;3.90;99.90
12815;DHT22;6472;52.328;13.070;2022-09-23T06:44:09;4.10;99.90
12815;DHT22;6472;52.328;13.070;2022-09-23T06:46:37;4.20;99.90
12815;DHT22;6472;52.328;13.070;2022-09-23T06:49:06;4.40;99.90
12815;DHT22;6472;52.328;13.070;2022-09-23T06:51:36;4.60;99.90
12815;DHT22;6472;52.328;13.070;2022-09-23T06:54:05;4.70;99.90
12815;DHT22;6472;52.328;13.070;2022-09-23T06:56:33;4.90;99.90
12815;DHT22;6472;52.328;13.070;2022-09-23T06:59:05;5.10;99.90
12815;DHT22;6472;52.328;13.070;2022-09-23T07:01:33;5.30;99.90
12815;DHT22;6472;52.328;13.070;2022-09-23T07:04:02;5.50;99.90
12815;DHT22;6472;52.328;13.070;2022-09-23T07:06:30;5.70;99.90
12815;DHT22;6472;52.328;13.070;2022-09-23T07:08:58;5.90;99.90
12815;DHT22;6472;52.328;13.070;2022-09-23T07:11:28;6.10;99.90
12815;DHT22;6472;52.328;13.070;2022-09-23T07:13:56;6.40;99.90
12815;DHT22;6472;52.328;13.070;2022-09-23T07:16:24;6.60;99.90
12815;DHT22;6472;52.328;13.070;2022-09-23T07:18:52;6.70;99.90
12815;DHT22;6472;52.328;13.070;2022-09-23T07:21:21;7.00;99.90
12815;DHT22;6472;52.328;13.070;2022-09-23T07:23:49;7.20;99.90
12815;DHT22;6472;52.328;13.070;2022-09-23T07:26:19;7.40;99.90
12815;DHT22;6472;52.328;13.070;2022-09-23T07:28:53;7.60;99.90
12815;DHT22;6472;52.328;13.070;2022-09-23T07:31:22;7.70;99.90
12815;DHT22;6472;52.328;13.070;2022-09-23T07:34:05;8.00;99.90
12815;DHT22;6472;52.328;13.070;2022-09-23T07:36:33;8.30;99.90
12815;DHT22;6472;52.328;13.070;2022-09-23T07:39:03;8.50;99.90
12815;DHT22;6472;52.328;13.070;2022-09-23T07:41:32;8.80;99.90
12815;DHT22;6472;52.328;13.070;2022-09-23T07:44:02;9.10;99.90
12815;DHT22;6472;52.328;13.070;2022-09-23T07:46:33;9.30;99.90
12815;DHT22;6472;52.328;13.070;2022-09-23T07:49:01;9.50;99.90
12815;DHT22;6472;52.328;13.070;2022-09-23T07:51:33;9.70;99.90
12815;DHT22;6472;52.328;13.070;2022-09-23T07:54:03;9.90;99.90
12815;DHT22;6472;52.328;13.070;2022-09-23T07:56:34;10.10;99.90
12815;DHT22;6472;52.328;13.070;2022-09-23T07:59:05;10.30;99.90
12815;DHT22;6472;52.328;13.070;2022-09-23T08:01:36;10.50;99.90
12815;DHT22;6472;52.328;13.070;2022-09-23T08:04:06;10.70;99.90
12815;DHT22;6472;52.328;13.070;2022-09-23T08:06:39;10.90;99.90
12815;DHT22;6472;52.328;13.070;2022-09-23T08:09:07;11.00;99.90
12815;DHT22;6472;52.328;13.070;2022-09-23T08:11:35;11.10;99.90
12815;DHT22;6472;52.328;13.070;2022-09-23T08:14:06;11.40;99.90
12815;DHT22;6472;52.328;13.070;2022-09-23T08:16:34;11.70;99.90
12815;DHT22;6472;52.328;13.070;2022-09-23T08:19:03;11.90;99.90
12815;DHT22;6472;52.328;13.070;2022-09-23T08:21:36;12.00;99.90
12815;DHT22;6472;52.328;13.070;2022-09-23T08:24:05;12.20;99.90
12815;DHT22;6472;52.328;13.070;2022-09-23T08:26:33;12.40;99.90
12815;DHT22;6472;52.328;13.070;2022-09-23T08:29:01;12.70;99.90
12815;DHT22;6472;52.328;13.070;2022-09-23T08:31:30;12.90;99.90
12815;DHT22;6472;52.328;13.070;2022-09-23T08:33:58;13.00;99.90
12815;DHT22;6472;52.328;13.070;2022-09-23T08:36:26;13.20;99.90
12815;DHT22;6472;52.328;13.070;2022-09-23T08:38:54;13.30;99.90
12815;DHT22;6472;52.328;13.070;2022-09-23T08:41:29;13.40;99.90
12815;DHT22;6472;52.328;13.070;2022-09-23T08:44:03;13.60;99.90
12815;DHT22;6472;52.328;13.070;2022-09-23T08:46:41;13.80;99.90
12815;DHT22;6472;52.328;13.070;2022-09-23T08:49:15;14.10;99.90
12815;DHT22;6472;52.328;13.070;2022-09-23T08:51:45;14.10;99.90
12815;DHT22;6472;52.328;13.070;2022-09-23T08:54:15;14.30;99.90
12815;DHT22;6472;52.328;13.070;2022-09-23T08:56:47;14.50;99.90
12815;DHT22;6472;52.328;13.070;2022-09-23T08:59:41;14.50;99.90
12815;DHT22;6472;52.328;13.070;2022-09-23T09:02:46;14.60;99.90
12815;DHT22;6472;52.328;13.070;2022-09-23T09:05:23;14.80;99.90
12815;DHT22;6472;52.328;13.070;2022-09-23T09:07:54;15.00;99.90
12815;DHT22;6472;52.328;13.070;2022-09-23T09:10:25;15.10;99.90
12815;DHT22;6472;52.328;13.070;2022-09-23T09:13:01;15.30;99.90
12815;DHT22;6472;52.328;13.070;2022-09-23T09:15:36;15.50;99.90
12815;DHT22;6472;52.328;13.070;2022-09-23T09:18:15;15.60;99.90
12815;DHT22;6472;52.328;13.070;2022-09-23T09:20:52;15.70;99.90
12815;DHT22;6472;52.328;13.070;2022-09-23T09:23:28;15.80;99.90
12815;DHT22;6472;52.328;13.070;2022-09-23T09:26:00;15.60;99.90
12815;DHT22;6472;52.328;13.070;2022-09-23T09:28:32;15.60;99.90
12815;DHT22;6472;52.328;13.070;2022-09-23T09:31:10;15.70;99.90
12815;DHT22;6472;52.328;13.070;2022-09-23T09:33:53;15.70;99.90
12815;DHT22;6472;52.328;13.070;2022-09-23T09:36:31;15.70;99.90
12815;DHT22;6472;52.328;13.070;2022-09-23T09:39:01;15.80;99.90
12815;DHT22;6472;52.328;13.070;2022-09-23T09:41:29;15.80;99.90
12815;DHT22;6472;52.328;13.070;2022-09-23T09:44:00;15.80;99.90
12815;DHT22;6472;52.328;13.070;2022-09-23T09:46:38;15.70;99.90
12815;DHT22;6472;52.328;13.070;2022-09-23T09:49:21;15.70;99.90
12815;DHT22;6472;52.328;13.070;2022-09-23T09:52:10;15.80;99.90
12815;DHT22;6472;52.328;13.070;2022-09-23T09:54:39;15.70;99.90
12815;DHT22;6472;52.328;13.070;2022-09-23T09:57:15;15.80;99.90
12815;DHT22;6472;52.328;13.070;2022-09-23T09:59:44;15.90;99.90
12815;DHT22;6472;52.328;13.070;2022-09-23T10:02:20;15.90;99.90
12815;DHT22;6472;52.328;13.070;2022-09-23T10:05:02;15.90;99.90
12815;DHT22;6472;52.328;13.070;2022-09-23T10:07:33;16.00;99.90
12815;DHT22;6472;52.328;13.070;2022-09-23T10:10:17;16.00;99.90
12815;DHT22;6472;52.328;13.070;2022-09-23T10:13:13;16.00;99.90
12815;DHT22;6472;52.328;13.070;2022-09-23T10:15:44;16.00;99.90
12815;DHT22;6472;52.328;13.070;2022-09-23T10:18:18;16.00;99.90
12815;DHT22;6472;52.328;13.070;2022-09-23T10:20:48;16.00;99.90
12815;DHT22;6472;52.328;13.070;2022-09-23T10:23:17;16.00;99.90
12815;DHT22;6472;52.328;13.070;2022-09-23T10:25:55;16.00;99.90
12815;DHT22;6472;52.328;13.070;2022-09-23T10:28:35;16.00;99.90
12815;DHT22;6472;52.328;13.070;2022-09-23T10:31:07;15.90;99.90
12815;DHT22;6472;52.328;13.070;2022-09-23T10:33:40;15.80;99.90
12815;DHT22;6472;52.328;13.070;2022-09-23T10:36:11;16.00;99.90
12815;DHT22;6472;52.328;13.070;2022-09-23T10:38:41;16.10;99.90
12815;DHT22;6472;52.328;13.070;2022-09-23T10:41:17;16.10;99.90
12815;DHT22;6472;52.328;13.070;2022-09-23T10:44:21;15.90;99.90
12815;DHT22;6472;52.328;13.070;2022-09-23T10:47:17;15.90;99.90
12815;DHT22;6472;52.328;13.070;2022-09-23T10:49:57;15.90;99.90
12815;DHT22;6472;52.328;13.070;2022-09-23T10:52:43;16.00;99.90
12815;DHT22;6472;52.328;13.070;2022-09-23T10:55:25;16.10;99.90
12815;DHT22;6472;52.328;13.070;2022-09-23T10:58:06;16.10;99.90
12815;DHT22;6472;52.328;13.070;2022-09-23T11:00:43;16.10;99.90
12815;DHT22;6472;52.328;13.070;2022-09-23T11:06:17;16.20;99.90
12815;DHT22;6472;52.328;13.070;2022-09-23T11:09:07;16.00;99.90
12815;DHT22;6472;52.328;13.070;2022-09-23T11:11:50;16.10;99.80
12815;DHT22;6472;52.328;13.070;2022-09-23T11:14:31;16.10;99.90
12815;DHT22;6472;52.328;13.070;2022-09-23T11:17:23;16.20;99.90
12815;DHT22;6472;52.328;13.070;2022-09-23T11:20:03;16.30;99.90
12815;DHT22;6472;52.328;13.070;2022-09-23T11:22:48;16.20;99.90
12815;DHT22;6472;52.328;13.070;2022-09-23T11:25:42;16.30;99.90
12815;DHT22;6472;52.328;13.070;2022-09-23T11:28:36;16.30;99.90
12815;DHT22;6472;52.328;13.070;2022-09-23T11:31:18;16.30;99.90
12815;DHT22;6472;52.328;13.070;2022-09-23T11:33:59;16.30;99.90
12815;DHT22;6472;52.328;13.070;2022-09-23T11:36:37;16.20;99.90
12815;DHT22;6472;52.328;13.070;2022-09-23T11:39:11;16.00;99.70
12815;DHT22;6472;52.328;13.070;2022-09-23T11:41:43;16.10;99.90
12815;DHT22;6472;52.328;13.070;2022-09-23T11:44:16;16.10;99.90
12815;DHT22;6472;52.328;13.070;2022-09-23T11:46:49;16.10;99.90
12815;DHT22;6472;52.328;13.070;2022-09-23T11:49:30;16.10;97.60
12815;DHT22;6472;52.328;13.070;2022-09-23T11:52:27;16.10;99.90
12815;DHT22;6472;52.328;13.070;2022-09-23T11:55:00;16.10;99.30
12815;DHT22;6472;52.328;13.070;2022-09-23T11:57:46;16.20;99.90
12815;DHT22;6472;52.328;13.070;2022-09-23T12:00:18;16.20;99.90
12815;DHT22;6472;52.328;13.070;2022-09-23T12:02:58;16.20;99.20
12815;DHT22;6472;52.328;13.070;2022-09-23T12:05:34;16.30;99.00
12815;DHT22;6472;52.328;13.070;2022-09-23T12:08:11;16.30;98.10
12815;DHT22;6472;52.328;13.070;2022-09-23T12:10:46;16.40;97.30
12815;DHT22;6472;52.328;13.070;2022-09-23T12:13:28;16.50;95.90
12815;DHT22;6472;52.328;13.070;2022-09-23T12:16:23;16.50;95.60
12815;DHT22;6472;52.328;13.070;2022-09-23T12:18:59;16.50;98.00
12815;DHT22;6472;52.328;13.070;2022-09-23T12:21:47;16.60;97.50
12815;DHT22;6472;52.328;13.070;2022-09-23T12:24:33;16.70;96.90
12815;DHT22;6472;52.328;13.070;2022-09-23T12:27:09;16.80;96.50
12815;DHT22;6472;52.328;13.070;2022-09-23T12:29:40;17.00;97.50
12815;DHT22;6472;52.328;13.070;2022-09-23T12:32:16;17.10;95.30
12815;DHT22;6472;52.328;13.070;2022-09-23T12:34:46;17.30;96.10
12815;DHT22;6472;52.328;13.070;2022-09-23T12:37:23;17.20;95.10
12815;DHT22;6472;52.328;13.070;2022-09-23T12:39:52;17.40;96.10
12815;DHT22;6472;52.328;13.070;2022-09-23T12:42:21;17.30;94.70
12815;DHT22;6472;52.328;13.070;2022-09-23T12:48:01;17.30;95.90
12815;DHT22;6472;52.328;13.070;2022-09-23T12:50:50;17.40;95.90
12815;DHT22;6472;52.328;13.070;2022-09-23T12:57:00;17.60;96.40
12815;DHT22;6472;52.328;13.070;2022-09-23T13:02:32;17.70;90.20
12815;DHT22;6472;52.328;13.070;2022-09-23T13:05:19;17.70;92.40
12815;DHT22;6472;52.328;13.070;2022-09-23T13:08:08;17.80;92.90
12815;DHT22;6472;52.328;13.070;2022-09-23T13:10:45;17.90;90.60
12815;DHT22;6472;52.328;13.070;2022-09-23T13:13:18;17.80;90.10
12815;DHT22;6472;52.328;13.070;2022-09-23T13:15:48;17.70;91.40
12815;DHT22;6472;52.328;13.070;2022-09-23T13:21:17;17.50;91.50
12815;DHT22;6472;52.328;13.070;2022-09-23T13:24:15;17.60;92.20
12815;DHT22;6472;52.328;13.070;2022-09-23T13:26:45;17.60;91.90
12815;DHT22;6472;52.328;13.070;2022-09-23T13:29:18;17.50;90.40
12815;DHT22;6472;52.328;13.070;2022-09-23T13:31:47;17.50;90.00
12815;DHT22;6472;52.328;13.070;2022-09-23T13:34:19;17.40;91.00
12815;DHT22;6472;52.328;13.070;2022-09-23T13:36:49;17.30;90.90
12815;DHT22;6472;52.328;13.070;2022-09-23T13:39:22;17.20;91.20
12815;DHT22;6472;52.328;13.070;2022-09-23T13:41:52;17.00;90.20
12815;DHT22;6472;52.328;13.070;2022-09-23T13:44:21;16.90;90.80
12815;DHT22;6472;52.328;13.070;2022-09-23T13:46:51;16.90;90.50
12815;DHT22;6472;52.328;13.070;2022-09-23T13:49:21;16.90;92.10
12815;DHT22;6472;52.328;13.070;2022-09-23T13:51:52;16.80;92.20
12815;DHT22;6472;52.328;13.070;2022-09-23T13:54:28;16.70;92.90
12815;DHT22;6472;52.328;13.070;2022-09-23T13:56:58;16.60;94.10
12815;DHT22;6472;52.328;13.070;2022-09-23T13:59:27;16.60;91.50
12815;DHT22;6472;52.328;13.070;2022-09-23T14:02:03;16.50;91.80
12815;DHT22;6472;52.328;13.070;2022-09-23T14:04:31;16.60;92.00
12815;DHT22;6472;52.328;13.070;2022-09-23T14:07:01;16.60;93.00
12815;DHT22;6472;52.328;13.070;2022-09-23T14:09:30;16.60;94.20
12815;DHT22;6472;52.328;13.070;2022-09-23T14:11:59;16.60;94.80
12815;DHT22;6472;52.328;13.070;2022-09-23T14:14:28;16.60;93.30
12815;DHT22;6472;52.328;13.070;2022-09-23T14:16:57;16.50;93.20
12815;DHT22;6472;52.328;13.070;2022-09-23T14:19:26;16.50;92.70
12815;DHT22;6472;52.328;13.070;2022-09-23T14:21:54;16.40;93.40
12815;DHT22;6472;52.328;13.070;2022-09-23T14:24:29;16.40;94.20
12815;DHT22;6472;52.328;13.070;2022-09-23T14:26:59;16.30;94.80
12815;DHT22;6472;52.328;13.070;2022-09-23T14:29:30;16.20;95.90
12815;DHT22;6472;52.328;13.070;2022-09-23T14:32:01;16.20;95.90
12815;DHT22;6472;52.328;13.070;2022-09-23T14:34:45;16.10;95.90
12815;DHT22;6472;52.328;13.070;2022-09-23T14:37:21;16.00;96.20
12815;DHT22;6472;52.328;13.070;2022-09-23T14:40:12;16.00;97.20
12815;DHT22;6472;52.328;13.070;2022-09-23T14:42:43;15.90;94.80
12815;DHT22;6472;52.328;13.070;2022-09-23T14:45:15;16.10;95.60
12815;DHT22;6472;52.328;13.070;2022-09-23T14:47:47;16.00;96.60
12815;DHT22;6472;52.328;13.070;2022-09-23T14:50:18;16.10;96.60
12815;DHT22;6472;52.328;13.070;2022-09-23T14:53:34;16.00;97.10
12815;DHT22;6472;52.328;13.070;2022-09-23T14:56:15;16.00;98.00
12815;DHT22;6472;52.328;13.070;2022-09-23T14:58:46;15.90;99.90
12815;DHT22;6472;52.328;13.070;2022-09-23T15:01:39;16.00;99.90
12815;DHT22;6472;52.328;13.070;2022-09-23T15:04:13;16.00;99.90
12815;DHT22;6472;52.328;13.070;2022-09-23T15:06:48;15.90;99.90
12815;DHT22;6472;52.328;13.070;2022-09-23T15:09:20;16.00;99.90
12815;DHT22;6472;52.328;13.070;2022-09-23T15:11:51;15.90;99.90
12815;DHT22;6472;52.328;13.070;2022-09-23T15:14:19;15.90;99.90
12815;DHT22;6472;52.328;13.070;2022-09-23T15:17:11;15.80;99.90
12815;DHT22;6472;52.328;13.070;2022-09-23T15:19:40;15.70;99.90
12815;DHT22;6472;52.328;13.070;2022-09-23T15:22:08;15.70;99.90
12815;DHT22;6472;52.328;13.070;2022-09-23T15:24:40;15.70;99.90
12815;DHT22;6472;52.328;13.070;2022-09-23T15:27:24;15.60;99.90
12815;DHT22;6472;52.328;13.070;2022-09-23T15:29:53;15.50;99.90
12815;DHT22;6472;52.328;13.070;2022-09-23T15:32:21;15.50;99.90
12815;DHT22;6472;52.328;13.070;2022-09-23T15:34:50;15.40;99.90
12815;DHT22;6472;52.328;13.070;2022-09-23T15:37:18;15.40;99.90
12815;DHT22;6472;52.328;13.070;2022-09-23T15:39:48;15.40;99.90
12815;DHT22;6472;52.328;13.070;2022-09-23T15:42:16;15.30;99.90
12815;DHT22;6472;52.328;13.070;2022-09-23T15:44:44;15.30;99.90
12815;DHT22;6472;52.328;13.070;2022-09-23T15:47:14;15.30;99.90
12815;DHT22;6472;52.328;13.070;2022-09-23T15:49:44;15.30;99.90
12815;DHT22;6472;52.328;13.070;2022-09-23T15:52:13;15.40;99.90
12815;DHT22;6472;52.328;13.070;2022-09-23T15:54:43;15.40;99.90
12815;DHT22;6472;52.328;13.070;2022-09-23T15:57:13;15.40;99.90
12815;DHT22;6472;52.328;13.070;2022-09-23T15:59:41;15.50;99.90
12815;DHT22;6472;52.328;13.070;2022-09-23T16:02:16;15.50;99.90
12815;DHT22;6472;52.328;13.070;2022-09-23T16:04:44;15.50;99.90
12815;DHT22;6472;52.328;13.070;2022-09-23T16:07:18;15.60;99.90
12815;DHT22;6472;52.328;13.070;2022-09-23T16:09:47;15.50;99.90
12815;DHT22;6472;52.328;13.070;2022-09-23T16:12:16;15.50;99.90
12815;DHT22;6472;52.328;13.070;2022-09-23T16:14:44;15.50;99.90
12815;DHT22;6472;52.328;13.070;2022-09-23T16:17:12;15.40;99.90
12815;DHT22;6472;52.328;13.070;2022-09-23T16:19:40;15.30;99.90
12815;DHT22;6472;52.328;13.070;2022-09-23T16:22:10;15.20;99.90
12815;DHT22;6472;52.328;13.070;2022-09-23T16:24:41;15.00;99.90
12815;DHT22;6472;52.328;13.070;2022-09-23T16:27:11;15.00;99.90
12815;DHT22;6472;52.328;13.070;2022-09-23T16:29:41;14.80;99.90
12815;DHT22;6472;52.328;13.070;2022-09-23T16:32:09;14.60;99.90